Flight Track Log - Related Links

Times and Time Zones

All times are in EDT time to prevent confusion due to time zone crossing. See the UAL906 flight status page for this flight to view local times or setup timezone preferences in your user account.

Time Position Orientation Groundspeed Altitude Reporting Facility
EDT Latitude Longitude Course Direction KTS MPH feet Rate Location/Type
Sat 08:03:40 AM 50.0610 8.6500 308° West 191 220 2,300  Level FlightAware ADS-B
Sat 08:04:00 AM 50.2286 8.1096 308° West  Level FlightAware Approximate
Sat 08:04:04 AM 50.0660 8.6770 74° East 197 227 2,700  Level FlightAware ADS-B
Sat 08:04:28 AM 50.0780 8.7140 63° Northeast 203 234 3,200 857 Climbing FlightAware ADS-B
Sat 08:04:46 AM 50.0930 8.7270 29° Northeast 224 258 3,300 1,125 Climbing FlightAware ADS-B
Sat 08:05:16 AM 50.1240 8.7450 20° North 252 290 4,100 1,435 Climbing FlightAware ADS-B
Sat 08:05:32 AM 50.1430 8.7570 22° Northeast 269 310 4,400 2,100 Climbing FlightAware ADS-B
Sat 08:05:56 AM 50.1700 8.7760 24° Northeast 267 307 5,500 2,206 Climbing FlightAware ADS-B
Sat 08:06:40 AM 50.2220 8.7580 348° North 287 330 6,900 1,714 Climbing FlightAware ADS-B
Sat 08:07:06 AM 50.2430 8.7160 308° West 295 339 7,500 1,444 Climbing FlightAware ADS-B
Sat 08:07:34 AM 50.2640 8.6630 302° West 314 361 8,200 1,846 Climbing FlightAware ADS-B
Sat 08:07:58 AM 50.2810 8.6130 298° West 324 373 9,100 2,077 Climbing FlightAware ADS-B
Sat 08:08:26 AM 50.2960 8.5510 291° West 332 382 10,000 1,412 Climbing FlightAware ADS-B
Sat 08:09:06 AM 50.3220 8.4600 294° West 362 417 10,700 1,571 Climbing FlightAware ADS-B
Sat 08:09:50 AM 50.3520 8.3540 294° West 370 426 12,200 1,902 Climbing FlightAware ADS-B
Sat 08:10:28 AM 50.3760 8.2570 291° West 382 440 13,300 1,778 Climbing FlightAware ADS-B
Sat 08:11:38 AM 50.4230 8.0700 292° West 399 459 15,400 1,811 Climbing FlightAware ADS-B
Sat 08:12:14 AM 50.4480 7.9720 292° West 403 464 16,500 1,658 Climbing FlightAware ADS-B
Sat 08:12:54 AM 50.4750 7.8640 291° West 411 473 17,500 1,500 Climbing FlightAware ADS-B
Sat 08:13:38 AM 50.5060 7.7400 292° West 417 480 18,600 1,571 Climbing FlightAware ADS-B
Sat 08:14:18 AM 50.5340 7.6280 292° West 421 484 19,700 1,500 Climbing FlightAware ADS-B
Sat 08:14:54 AM 50.5660 7.5330 298° West 420 483 20,500 1,342 Climbing FlightAware ADS-B
Sat 08:15:34 AM 50.6290 7.4560 322° Northwest 421 484 21,400 1,342 Climbing FlightAware ADS-B
Sat 08:16:10 AM 50.6870 7.3970 327° Northwest 426 490 22,200 1,350 Climbing FlightAware ADS-B
Sat 08:16:54 AM 50.7580 7.3130 323° Northwest 433 498 23,200 1,286 Climbing FlightAware ADS-B
Sat 08:17:34 AM 50.7980 7.2090 301° West 443 510 24,000 1,185 Climbing FlightAware ADS-B
Sat 08:18:15 AM 50.8340 7.0860 295° West 450 518 24,800 1,098 Climbing FlightAware ADS-B
Sat 08:18:56 AM 50.8680 6.9640 294° West 455 524 25,500 1,103 Climbing FlightAware ADS-B
Sat 08:19:42 AM 50.9090 6.8210 294° West 461 531 26,400 1,171 Climbing FlightAware ADS-B
Sat 08:20:18 AM 50.9410 6.7070 294° West 464 534 27,100 1,000 Climbing FlightAware ADS-B
Sat 08:21:00 AM 50.9770 6.5800 294° West 470 541 27,700 975 Climbing FlightAware ADS-B
Sat 08:21:38 AM 51.0100 6.4600 294° West 473 544 28,400 1,024 Climbing FlightAware ADS-B
Sat 08:22:22 AM 51.0500 6.3200 294° West 478 550 29,100 950 Climbing FlightAware ADS-B
Sat 08:23:19 AM 51.1010 6.1330 294° West 482 555 30,000 928 Climbing FlightAware ADS-B
Sat 08:23:59 AM 51.1350 6.0030 293° West 486 559 30,600 900 Climbing FlightAware ADS-B
Sat 08:24:39 AM 51.1570 5.8630 284° West 494 568 31,200 1,098 Climbing FlightAware ADS-B
Sat 08:25:21 AM 51.1680 5.7120 277° West 490 564 32,100 1,047 Climbing FlightAware ADS-B
Sat 08:26:05 AM 51.1800 5.5640 277° West 492 566 32,700 907 Climbing FlightAware ADS-B
Sat 08:26:47 AM 51.1910 5.4120 277° West 487 560 33,400 940 Climbing FlightAware ADS-B
Sat 08:27:28 AM 51.2010 5.2700 276° West 486 559 34,000 846 Climbing FlightAware ADS-B
Sat 08:28:05 AM 51.2110 5.1280 276° West 482 555 34,500 659 Climbing FlightAware ADS-B
Sat 08:28:50 AM 51.2195 4.9669 276° West 490 564 34,900 625 Climbing FlightAware UK
Sat 08:28:53 AM 51.2220 4.9650 276° West 480 552 35,000 698 Climbing FlightAware ADS-B
Sat 08:29:33 AM 51.2320 4.8240 277° West 480 552 35,400 488 Climbing FlightAware ADS-B
Sat 08:30:19 AM 51.2430 4.6620 276° West 480 552 35,700 424 Climbing FlightAware ADS-B
Sat 08:30:58 AM 51.2520 4.5210 276° West 479 551 36,000 222 Climbing FlightAware ADS-B
Sat 08:31:40 AM 51.2610 4.3740 276° West 478 550 36,000  Level FlightAware ADS-B
Sat 08:32:18 AM 51.2700 4.2430 276° West 477 549 36,000  Level FlightAware ADS-B
Sat 08:33:00 AM 51.2790 4.0950 276° West 476 548 36,000  Level FlightAware ADS-B
Sat 08:33:33 AM 51.2860 3.9750 275° West 476 548 36,000 -82 Level FlightAware ADS-B
Sat 08:34:13 AM 51.2936 3.8345 275° West 486 559 35,900  Descending FlightAware UK
Sat 08:34:24 AM 51.2960 3.8010 275° West 475 547 36,000 100 Climbing FlightAware ADS-B
Sat 08:35:13 AM 51.2985 3.6245 275° West 488 562 36,000  Level FlightAware UK
Sat 08:35:19 AM 51.2980 3.6100 275° West 478 550 36,000  Level FlightAware ADS-B
Sat 08:35:57 AM 51.2990 3.4720 271° West 478 550 36,000  Level FlightAware ADS-B
Sat 08:36:35 AM 51.2990 3.3400 270° West 478 550 36,000 -79 Level FlightAware ADS-B
Sat 08:37:13 AM 51.2991 3.2018 270° West 488 562 35,900  Descending FlightAware UK
Sat 08:37:22 AM 51.3000 3.1720 270° West 476 548 36,000 120 Climbing FlightAware ADS-B
Sat 08:38:03 AM 51.3140 3.0340 279° West 470 541 36,000 -74 Level FlightAware ADS-B
Sat 08:38:43 AM 51.3313 2.8945 279° West 486 559 35,900  Descending FlightAware UK
Sat 08:38:48 AM 51.3340 2.8810 279° West 470 541 36,000 133 Climbing FlightAware ADS-B
Sat 08:39:28 AM 51.3510 2.7480 282° West 470 541 36,000  Level FlightAware ADS-B
Sat 08:40:01 AM 51.3657 2.6297 282° West 488 562 36,000  Level FlightAware UK
Sat 08:40:10 AM 51.3700 2.6050 282° West 471 542 36,000  Level FlightAware ADS-B
Sat 08:40:54 AM 51.3900 2.4530 282° West 470 541 36,000 -133 Level FlightAware ADS-B
Sat 08:40:55 AM 51.3912 2.4439 282° West 488 562 35,900 -194 Descending FlightAware UK
Sat 08:41:25 AM 51.4045 2.3421 282° West 488 562 35,900 143 Level FlightAware UK
Sat 08:41:37 AM 51.4090 2.3080 282° West 469 540 36,000 136 Climbing FlightAware ADS-B
Sat 08:42:09 AM 51.4240 2.1967 282° West 470 541 36,000  Level FlightAware ADS-B
Sat 08:42:41 AM 51.4388 2.0872 282° West 470 541 36,000  Level FlightAware ADS-B
Sat 08:43:25 AM 51.4588 1.9391 282° West 468 539 36,000  Level FlightAware ADS-B
Sat 08:44:00 AM 51.4743 1.8226 282° West 467 537 36,000  Level FlightAware ADS-B
Sat 08:44:31 AM 51.4885 1.7152 282° West 465 535 36,000 -71 Level FlightAware ADS-B
Sat 08:45:25 AM 51.5127 1.5343 282° West 486 559 35,900  Descending FlightAware UK
Sat 08:45:38 AM 51.5180 1.4960 282° West 464 534 36,000 146 Climbing FlightAware ADS-B
Sat 08:46:06 AM 51.5314 1.3959 282° West 465 535 36,000  Level FlightAware ADS-B
Sat 08:46:39 AM 51.5463 1.2863 282° West 465 535 36,000  Level FlightAware ADS-B
Sat 08:47:09 AM 51.5561 1.1835 279° West 465 535 36,000  Level FlightAware ADS-B
Sat 08:47:41 AM 51.5654 1.0734 278° West 466 536 36,000  Level FlightAware ADS-B
Sat 08:48:12 AM 51.5745 0.9691 278° West 467 537 36,000  Level FlightAware ADS-B
Sat 08:48:33 AM 51.5807 0.8987 278° West 466 536 36,000  Level FlightAware ADS-B
Sat 08:48:56 AM 51.5842 0.8190 274° West 467 537 36,000  Level FlightAware ADS-B
Sat 08:49:27 AM 51.5825 0.7088 269° West 468 539 36,000  Level FlightAware ADS-B
Sat 08:49:59 AM 51.5785 0.5985 267° West 468 539 36,000  Level FlightAware ADS-B
Sat 08:50:30 AM 51.5747 0.4926 267° West 468 539 36,000  Level FlightAware ADS-B
Sat 08:51:02 AM 51.5703 0.3826 266° West 469 540 36,000  Level FlightAware ADS-B
Sat 08:51:33 AM 51.5658 0.2731 266° West 469 540 36,000  Level FlightAware ADS-B
Sat 08:52:04 AM 51.5611 0.1669 266° West 468 539 36,000  Level FlightAware ADS-B
Sat 08:52:34 AM 51.5565 0.0630 266° West 469 540 36,000  Level FlightAware ADS-B
Sat 08:53:05 AM 51.5517 -0.0432 266° West 469 540 36,000  Level FlightAware ADS-B
Sat 08:53:30 AM 51.5514 -0.1316 270° West 468 539 36,000  Level FlightAware ADS-B
Sat 08:53:49 AM 51.5545 -0.1955 274° West 469 540 36,000  Level FlightAware ADS-B
Sat 08:54:19 AM 51.5632 -0.2994 278° West 469 540 36,000  Level FlightAware ADS-B
Sat 08:54:49 AM 51.5716 -0.4035 277° West 469 540 36,000  Level FlightAware ADS-B
Sat 08:55:19 AM 51.5800 -0.5071 277° West 469 540 36,000  Level FlightAware ADS-B
Sat 08:55:50 AM 51.5886 -0.6122 278° West 469 540 36,000  Level FlightAware ADS-B
Sat 08:56:20 AM 51.5971 -0.7159 278° West 468 539 36,000  Level FlightAware ADS-B
Sat 08:56:51 AM 51.6059 -0.8228 278° West 468 539 36,000  Level FlightAware ADS-B
Sat 08:57:21 AM 51.6143 -0.9263 277° West 468 539 36,000  Level FlightAware ADS-B
Sat 08:57:51 AM 51.6226 -1.0305 277° West 467 537 36,000  Level FlightAware ADS-B
Sat 08:58:23 AM 51.6310 -1.1386 277° West 467 537 36,000  Level FlightAware ADS-B
Sat 08:58:54 AM 51.6393 -1.2443 277° West 467 537 36,000  Level FlightAware ADS-B
Sat 08:59:25 AM 51.6475 -1.3504 277° West 466 536 36,000  Level FlightAware ADS-B
Sat 08:59:55 AM 51.6556 -1.4538 277° West 466 536 36,000  Level FlightAware ADS-B
Sat 09:00:26 AM 51.6647 -1.5608 278° West 466 536 36,000  Level FlightAware ADS-B
Sat 09:00:58 AM 51.6738 -1.6693 278° West 467 537 36,000  Level FlightAware ADS-B
Sat 09:01:28 AM 51.6824 -1.7753 277° West 468 539 36,000  Level FlightAware ADS-B
Sat 09:01:59 AM 51.6909 -1.8795 278° West 468 539 36,000  Level FlightAware ADS-B
Sat 09:02:29 AM 51.6992 -1.9843 277° West 468 539 36,000  Level FlightAware ADS-B
Sat 09:03:01 AM 51.7079 -2.0961 277° West 469 540 36,000  Level FlightAware ADS-B
Sat 09:03:32 AM 51.7160 -2.2000 277° West 468 539 36,000  Level FlightAware ADS-B
Sat 09:04:02 AM 51.7239 -2.3040 277° West 468 539 36,000  Level FlightAware ADS-B
Sat 09:04:34 AM 51.7325 -2.4168 277° West 468 539 36,000  Level FlightAware ADS-B
Sat 09:05:05 AM 51.7405 -2.5246 277° West 469 540 36,000  Level FlightAware ADS-B
Sat 09:05:36 AM 51.7484 -2.6302 277° West 469 540 36,000  Level FlightAware ADS-B
Sat 09:06:11 AM 51.7573 -2.7530 277° West 469 540 36,000  Level FlightAware ADS-B
Sat 09:06:46 AM 51.7660 -2.8744 277° West 470 541 36,000  Level FlightAware ADS-B
Sat 09:07:46 AM 51.7807 -3.0817 277° West 470 541 36,000  Level FlightAware ADS-B
Sat 09:08:16 AM 51.7878 -3.1851 277° West 488 562 36,000  Level FlightAware UK
Sat 09:08:40 AM 51.7930 -3.2660 277° West 469 540 36,000  Level FlightAware ADS-B
Sat 09:09:20 AM 51.8030 -3.4070 277° West 469 540 36,000  Level FlightAware ADS-B
Sat 09:09:57 AM 51.8116 -3.5391 277° West 486 559 36,000  Level FlightAware UK
Sat 09:10:00 AM 51.8120 -3.5410 277° West 470 541 36,000  Level FlightAware ADS-B
Sat 09:10:35 AM 51.8190 -3.6580 276° West 470 541 36,000  Level FlightAware ADS-B
Sat 09:11:33 AM 51.8300 -3.8300 276° West 471 542 36,000  Level FlightAware ADS-B
Sat 09:12:17 AM 51.8410 -4.0090 276° West 473 544 36,000  Level FlightAware ADS-B
Sat 09:12:57 AM 51.8510 -4.1678 276° West 488 562 36,000  Level FlightAware UK
Sat 09:12:58 AM 51.8510 -4.1630 276° West 473 544 36,000  Level FlightAware ADS-B
Sat 09:13:40 AM 51.8600 -4.3140 276° West 473 544 36,000  Level FlightAware ADS-B
Sat 09:14:23 AM 51.8690 -4.4680 275° West 474 545 36,000  Level FlightAware ADS-B
Sat 09:14:58 AM 51.8760 -4.5900 275° West 473 544 36,000  Level FlightAware ADS-B
Sat 09:15:03 AM 51.8768 -4.6101 275° West 488 562 36,000  Level FlightAware UK
Sat 09:15:39 AM 51.8837 -4.7369 275° West 488 562 36,000  Level FlightAware UK
Sat 09:15:40 AM 51.8840 -4.7380 275° West 473 544 36,000  Level FlightAware ADS-B
Sat 09:16:15 AM 51.8907 -4.8637 275° West 488 562 36,000  Level FlightAware UK
Sat 09:16:21 AM 51.8920 -4.8820 275° West 474 545 36,000  Level FlightAware ADS-B
Sat 09:16:51 AM 51.8976 -4.9907 275° West 488 562 36,000  Level FlightAware UK
Sat 09:17:01 AM 51.8990 -5.0240 275° West 475 547 36,000  Level FlightAware ADS-B
Sat 09:17:41 AM 51.9070 -5.1640 275° West 475 547 36,000  Level FlightAware ADS-B
Sat 09:18:21 AM 51.9140 -5.3030 275° West 477 549 36,000  Level FlightAware ADS-B
Sat 09:18:57 AM 51.9203 -5.4363 275° West 488 562 36,000  Level FlightAware UK
Sat 09:19:01 AM 51.9210 -5.4490 275° West 477 549 36,000  Level FlightAware ADS-B
Sat 09:19:46 AM 51.9290 -5.6100 275° West 476 548 36,000  Level FlightAware ADS-B
Sat 09:20:25 AM 51.9350 -5.7460 275° West 475 547 36,000  Level FlightAware ADS-B
Sat 09:20:27 AM 51.9355 -5.7558 275° West 490 564 36,000  Level FlightAware UK
Sat 09:20:57 AM 51.9403 -5.8619 275° West 486 559 36,000  Level FlightAware UK
Sat 09:21:10 AM 51.9420 -5.9030 275° West 477 549 36,000  Level FlightAware ADS-B
Sat 09:21:49 AM 51.9480 -6.0450 274° West 479 551 36,000  Level FlightAware ADS-B
Sat 09:22:25 AM 51.9540 -6.1730 274° West 477 549 36,000  Level FlightAware ADS-B
Sat 09:23:09 AM 51.9609 -6.3306 274° West 482 555 36,000  Level FlightAware UK
Sat 09:23:10 AM 51.9610 -6.3290 274° West 473 544 36,000  Level FlightAware ADS-B
Sat 09:23:51 AM 51.9670 -6.4790 274° West 477 549 36,000  Level FlightAware ADS-B
Sat 09:24:21 AM 51.9709 -6.5853 274° West 484 557 36,000  Level FlightAware UK
Sat 09:24:27 AM 51.9720 -6.6070 274° West 481 554 36,000  Level FlightAware ADS-B
Sat 09:24:57 AM 51.9756 -6.7146 274° West 486 559 36,000  Level FlightAware UK
Sat 09:25:01 AM 51.9770 -6.7300 274° West 483 556 36,000  Level FlightAware ADS-B
Sat 09:25:57 AM 51.9842 -6.9319 274° West 486 559 36,000  Level FlightAware UK
Sat 09:26:03 AM 51.9850 -6.9490 274° West 486 559 36,000  Level FlightAware ADS-B
Sat 09:26:34 AM 51.9890 -7.0590 273° West 486 559 36,000  Level FlightAware ADS-B
Sat 09:27:17 AM 51.9930 -7.1980 273° West 488 562 36,000  Level FlightAware ADS-B
Sat 09:27:55 AM 51.9980 -7.3450 273° West 490 564 36,000  Level FlightAware ADS-B
Sat 09:28:39 AM 52.0030 -7.5010 273° West 488 562 36,000  Level FlightAware ADS-B
Sat 09:29:14 AM 52.0080 -7.6537 273° West 490 564 36,000  Level FlightAware UK
Sat 09:29:19 AM 52.0080 -7.6520 273° West 488 562 36,000  Level FlightAware ADS-B
Sat 09:30:07 AM 52.0140 -7.8430 273° West 488 562 36,000  Level FlightAware ADS-B
Sat 09:30:48 AM 52.0180 -7.9880 273° West 489 563 36,000  Level FlightAware ADS-B
Sat 09:30:50 AM 52.0184 -8.0041 273° West 488 562 36,000  Level FlightAware UK
Sat 09:31:20 AM 52.0210 -8.1139 273° West 486 559 36,000  Level FlightAware UK
Sat 09:31:23 AM 52.0210 -8.1200 273° West 490 564 36,000  Level FlightAware ADS-B
Sat 09:32:03 AM 52.0250 -8.2620 273° West 491 565 36,000  Level FlightAware ADS-B
Sat 09:32:48 AM 52.0290 -8.4330 272° West 493 567 36,000  Level FlightAware ADS-B
Sat 09:33:26 AM 52.0321 -8.5766 272° West 486 559 36,000  Level FlightAware UK
Sat 09:33:33 AM 52.0330 -8.5960 272° West 495 570 36,000  Level FlightAware ADS-B
Sat 09:34:13 AM 52.0360 -8.7450 272° West 497 572 36,000  Level FlightAware ADS-B
Sat 09:34:47 AM 52.0380 -8.8760 271° West 498 573 36,000  Level FlightAware ADS-B
Sat 09:35:37 AM 52.0420 -9.0620 272° West 503 579 36,000  Level FlightAware ADS-B
Sat 09:36:27 AM 52.0450 -9.2510 272° West 506 582 36,000  Level FlightAware ADS-B
Sat 09:37:20 AM 52.0480 -9.4360 272° West 509 586 36,000  Level FlightAware ADS-B
Sat 09:38:00 AM 52.0500 -9.5880 271° West 511 588 36,000  Level FlightAware ADS-B
Sat 09:38:40 AM 52.0530 -9.7630 272° West 512 589 36,000  Level FlightAware ADS-B
Sat 09:39:15 AM 52.0540 -9.8640 271° West 513 590 36,000  Level FlightAware ADS-B
Sat 09:40:01 AM 52.0560 -10.0650 271° West 515 593 36,000  Level FlightAware ADS-B
Sat 09:41:14 AM 52.0580 -10.3340 271° West 516 594 36,000  Level FlightAware ADS-B
Sat 09:42:07 AM 52.0600 -10.5460 271° West 517 595 36,000  Level FlightAware ADS-B
Sat 09:42:51 AM 52.0600 -10.7230 270° West 518 596 36,000  Level FlightAware ADS-B
Sat 09:43:37 AM 52.0610 -10.8890 271° West 518 596 36,000  Level FlightAware ADS-B
Sat 09:44:14 AM 52.0610 -11.0270 270° West 519 597 36,000  Level FlightAware ADS-B
Sat 09:44:57 AM 52.0610 -11.2050 270° West 520 598 36,000  Level FlightAware ADS-B
Sat 09:45:32 AM 52.0610 -11.2970 270° West 521 600 36,000  Level FlightAware ADS-B
Sat 09:46:15 AM 52.0610 -11.5220 270° West 522 601 36,000  Level FlightAware ADS-B
Sat 09:46:59 AM 52.0600 -11.6910 270° West 523 602 36,000  Level FlightAware ADS-B
Sat 09:47:39 AM 52.0590 -11.8250 269° West 523 602 36,000  Level FlightAware ADS-B
Sat 09:48:16 AM 52.0580 -11.9490 269° West 523 602 36,000  Level FlightAware ADS-B
Sat 09:50:22 AM 52.0550 -12.4590 270° West 524 603 36,000  Level FlightAware ADS-B
Sat 09:50:58 AM 52.0550 -12.5800 270° West 524 603 36,000  Level FlightAware ADS-B
Sat 09:51:32 AM 52.0550 -12.6940 270° West 524 603 36,000  Level FlightAware ADS-B
Sat 09:52:20 AM 52.0550 -12.8540 270° West 524 603 36,000  Level FlightAware ADS-B
Sat 09:52:56 AM 52.0550 -12.9750 270° West 524 603 36,000  Level FlightAware ADS-B
Sat 09:53:45 AM 52.0550 -13.1390 270° West 524 603 36,000  Level FlightAware ADS-B
Sat 09:54:25 AM 52.0420 -13.3790 265° West 496 571 36,000  Level FlightAware ADS-B
Sat 09:55:01 AM 52.0410 -13.4930 269° West 496 571 36,000  Level FlightAware ADS-B
Sat 09:55:50 AM 52.0390 -13.6490 269° West 496 571 36,000  Level FlightAware ADS-B
Sat 09:56:26 AM 52.0380 -13.7630 269° West 496 571 36,000  Level FlightAware ADS-B
Sat 09:57:02 AM 52.0360 -13.8770 268° West 496 571 36,000  Level FlightAware ADS-B
Sat 09:57:50 AM 52.0350 -14.0290 269° West 496 571 36,000  Level FlightAware ADS-B
Sat 09:58:26 AM 52.0340 -14.1430 269° West 496 571 36,000  Level FlightAware ADS-B
Sat 09:59:02 AM 52.0320 -14.2580 268° West 496 571 36,000  Level FlightAware ADS-B
Sat 09:59:51 AM 52.0310 -14.4130 269° West 496 571 36,000  Level FlightAware ADS-B
Sat 10:00:29 AM 52.0290 -14.5330 268° West 496 571 36,000  Level FlightAware ADS-B
Sat 10:01:05 AM 52.0280 -14.6470 269° West 496 571 36,000  Level FlightAware ADS-B
Sat 10:01:54 AM 52.0260 -14.8030 269° West 496 571 36,000  Level FlightAware ADS-B
Sat 10:02:31 AM 52.0250 -14.9200 269° West 496 571 36,000  Level FlightAware ADS-B
Sat 10:03:19 AM 52.0230 -15.0720 269° West 496 571 36,000  Level FlightAware ADS-B
Sat 10:03:56 AM 52.0220 -15.1890 269° West 496 571 36,000  Level FlightAware ADS-B
Sat 10:06:00 AM 52.1064 -15.6034 289° West  Level Estimated
Sat 10:07:00 AM 52.1468 -15.8045 288° West  Level Estimated
Sat 10:08:00 AM 52.1868 -16.0059 288° West  Level Estimated
Sat 10:09:00 AM 52.2264 -16.2077 288° West  Level Estimated
Sat 10:10:00 AM 52.2658 -16.4099 288° West  Level Estimated
Sat 10:11:00 AM 52.3047 -16.6124 288° West  Level Estimated
Sat 10:12:00 AM 52.3433 -16.8152 287° West  Level Estimated
Sat 10:13:00 AM 52.3816 -17.0185 287° West  Level Estimated
Sat 10:14:00 AM 52.4195 -17.2220 287° West  Level Estimated
Sat 10:15:00 AM 52.4571 -17.4259 287° West  Level Estimated
Sat 10:16:00 AM 52.4943 -17.6302 287° West  Level Estimated
Sat 10:17:00 AM 52.5312 -17.8348 287° West  Level Estimated
Sat 10:18:00 AM 52.5677 -18.0398 286° West  Level Estimated
Sat 10:19:00 AM 52.6038 -18.2451 286° West  Level Estimated
Sat 10:20:00 AM 52.6396 -18.4507 286° West  Level Estimated
Sat 10:21:00 AM 52.6751 -18.6567 286° West  Level Estimated
Sat 10:22:00 AM 52.7102 -18.8630 286° West  Level Estimated
Sat 10:23:00 AM 52.7449 -19.0696 286° West  Level Estimated
Sat 10:24:00 AM 52.7793 -19.2766 285° West  Level Estimated
Sat 10:25:00 AM 52.8133 -19.4839 285° West  Level Estimated
Sat 10:25:00 AM 51.0000 -20.0000 265° West 538 619 36,000  Level ETMS Enhanced Traffic Management System
Sat 10:26:00 AM 52.8469 -19.6915 285° West  Level Estimated
Sat 10:27:00 AM 52.8802 -19.8994 285° West  Level Estimated
Sat 10:28:00 AM 52.9131 -20.1077 285° West  Level Estimated
Sat 10:29:00 AM 52.9457 -20.3162 285° West  Level Estimated
Sat 10:30:00 AM 52.9779 -20.5251 284° West  Level Estimated
Sat 10:31:00 AM 50.8794 -21.8899 263° West 538 619 36,000  Level FlightAware Transoceanic
Sat 10:32:00 AM 50.8621 -22.1254 263° West 538 619 36,000  Level FlightAware Transoceanic
Sat 10:33:00 AM 50.8445 -22.3608 263° West 538 619 36,000  Level FlightAware Transoceanic
Sat 10:34:00 AM 50.8263 -22.5959 263° West 538 619 36,000  Level FlightAware Transoceanic
Sat 10:35:00 AM 50.8077 -22.8309 263° West 538 619 36,000  Level FlightAware Transoceanic
Sat 10:36:00 AM 50.7885 -23.0657 263° West 538 619 36,000  Level FlightAware Transoceanic
Sat 10:37:00 AM 50.7690 -23.3003 262° West 538 619 36,000  Level FlightAware Transoceanic
Sat 10:38:00 AM 50.7489 -23.5347 262° West 538 619 36,000  Level FlightAware Transoceanic
Sat 10:39:00 AM 50.7284 -23.7689 262° West 538 619 36,000  Level FlightAware Transoceanic
Sat 10:40:00 AM 50.7074 -24.0028 262° West 538 619 36,000  Level FlightAware Transoceanic
Sat 10:41:00 AM 50.6859 -24.2366 262° West 538 619 36,000  Level FlightAware Transoceanic
Sat 10:42:00 AM 50.6640 -24.4702 261° West 538 619 36,000  Level FlightAware Transoceanic
Sat 10:43:00 AM 50.6416 -24.7035 261° West 538 619 36,000  Level FlightAware Transoceanic
Sat 10:44:00 AM 50.6188 -24.9366 261° West 538 619 36,000  Level FlightAware Transoceanic
Sat 10:45:00 AM 50.5955 -25.1695 261° West 538 619 36,000  Level FlightAware Transoceanic
Sat 10:46:00 AM 50.5717 -25.4021 261° West 538 619 36,000  Level FlightAware Transoceanic
Sat 10:47:00 AM 50.5474 -25.6345 261° West 538 619 36,000  Level FlightAware Transoceanic
Sat 10:48:00 AM 50.5227 -25.8667 260° West 538 619 36,000  Level FlightAware Transoceanic
Sat 10:49:00 AM 50.4975 -26.0986 260° West 538 619 36,000  Level FlightAware Transoceanic
Sat 10:50:00 AM 50.4719 -26.3303 260° West 538 619 36,000  Level FlightAware Transoceanic
Sat 10:51:00 AM 50.4458 -26.5617 260° West 538 619 36,000  Level FlightAware Transoceanic
Sat 10:52:00 AM 50.4193 -26.7929 260° West 538 619 36,000  Level FlightAware Transoceanic
Sat 10:53:00 AM 50.3923 -27.0238 260° West 538 619 36,000  Level FlightAware Transoceanic
Sat 10:54:00 AM 50.3648 -27.2544 259° West 538 619 36,000  Level FlightAware Transoceanic
Sat 10:55:00 AM 50.3369 -27.4848 259° West 538 619 36,000  Level FlightAware Transoceanic
Sat 10:56:00 AM 50.3085 -27.7149 259° West 538 619 36,000  Level FlightAware Transoceanic
Sat 10:57:00 AM 50.2797 -27.9447 259° West 538 619 36,000  Level FlightAware Transoceanic
Sat 10:58:00 AM 50.2504 -28.1742 259° West 538 619 36,000  Level FlightAware Transoceanic
Sat 10:59:00 AM 50.2207 -28.4035 258° West 538 619 36,000  Level FlightAware Transoceanic
Sat 11:00:00 AM 50.1905 -28.6325 258° West 538 619 36,000  Level FlightAware Transoceanic
Sat 11:01:00 AM 50.1599 -28.8611 258° West 538 619 36,000  Level FlightAware Transoceanic
Sat 11:02:00 AM 50.1288 -29.0895 258° West 538 619 36,000  Level FlightAware Transoceanic
Sat 11:03:00 AM 50.0973 -29.3176 258° West 538 619 36,000  Level FlightAware Transoceanic
Sat 11:04:00 AM 50.0653 -29.5454 258° West 538 619 36,000  Level FlightAware Transoceanic
Sat 11:05:00 AM 50.0329 -29.7728 257° West 538 619 36,000  Level FlightAware Transoceanic
Sat 11:06:00 AM 50.0049 -29.9664 257° West  Level FlightAware Approximate
Sat 11:07:00 AM 49.9766 -30.1597 257° West  Level FlightAware Approximate
Sat 11:08:00 AM 49.9928 -30.1289 265° West  Level FlightAware Approximate
Sat 11:09:00 AM 49.9815 -30.3264 265° West  Level FlightAware Approximate
Sat 11:10:00 AM 49.9698 -30.5238 265° West  Level FlightAware Approximate
Sat 11:11:00 AM 49.9578 -30.7211 265° West  Level FlightAware Approximate
Sat 11:12:00 AM 49.9454 -30.9183 265° West  Level FlightAware Approximate
Sat 11:13:00 AM 49.9328 -31.1154 264° West  Level FlightAware Approximate
Sat 11:14:00 AM 49.9198 -31.3123 264° West  Level FlightAware Approximate
Sat 11:15:00 AM 49.9064 -31.5092 264° West  Level FlightAware Approximate
Sat 11:16:00 AM 49.8928 -31.7060 264° West  Level FlightAware Approximate
Sat 11:17:00 AM 49.8788 -31.9026 264° West  Level FlightAware Approximate
Sat 11:18:00 AM 49.8644 -32.0992 264° West  Level FlightAware Approximate
Sat 11:19:00 AM 49.8498 -32.2956 263° West  Level FlightAware Approximate
Sat 11:20:00 AM 49.8348 -32.4919 263° West  Level FlightAware Approximate
Sat 11:21:00 AM 49.8194 -32.6881 263° West  Level FlightAware Approximate
Sat 11:22:00 AM 49.8038 -32.8841 263° West  Level FlightAware Approximate
Sat 11:23:00 AM 49.7878 -33.0801 263° West  Level FlightAware Approximate
Sat 11:24:00 AM 49.7715 -33.2758 263° West  Level FlightAware Approximate
Sat 11:25:00 AM 49.7548 -33.4715 263° West  Level FlightAware Approximate
Sat 11:26:00 AM 49.7378 -33.6670 262° West  Level FlightAware Approximate
Sat 11:27:00 AM 49.7205 -33.8624 262° West  Level FlightAware Approximate
Sat 11:28:00 AM 49.7029 -34.0577 262° West  Level FlightAware Approximate
Sat 11:29:00 AM 49.6849 -34.2528 262° West  Level FlightAware Approximate
Sat 11:30:00 AM 49.6666 -34.4477 262° West  Level FlightAware Approximate
Sat 11:31:00 AM 49.6480 -34.6425 262° West  Level FlightAware Approximate
Sat 11:32:00 AM 49.6291 -34.8372 262° West  Level FlightAware Approximate
Sat 11:33:00 AM 49.6098 -35.0317 261° West  Level FlightAware Approximate
Sat 11:34:00 AM 49.5902 -35.2260 261° West  Level FlightAware Approximate
Sat 11:35:00 AM 49.5703 -35.4202 261° West  Level FlightAware Approximate
Sat 11:36:00 AM 49.5500 -35.6143 261° West  Level FlightAware Approximate
Sat 11:37:00 AM 49.5294 -35.8081 261° West  Level FlightAware Approximate
Sat 11:38:00 AM 49.5085 -36.0018 261° West  Level FlightAware Approximate
Sat 11:39:00 AM 49.4873 -36.1954 260° West  Level FlightAware Approximate
Sat 11:40:00 AM 49.4658 -36.3887 260° West  Level FlightAware Approximate
Sat 11:41:00 AM 49.4439 -36.5820 260° West  Level FlightAware Approximate
Sat 11:42:00 AM 49.4217 -36.7750 260° West  Level FlightAware Approximate
Sat 11:43:00 AM 49.3992 -36.9678 260° West  Level FlightAware Approximate
Sat 11:44:00 AM 49.3764 -37.1605 260° West  Level FlightAware Approximate
Sat 11:45:00 AM 49.3532 -37.3530 260° West  Level FlightAware Approximate
Sat 11:46:00 AM 49.3298 -37.5453 259° West  Level FlightAware Approximate
Sat 11:47:00 AM 49.3060 -37.7374 259° West  Level FlightAware Approximate
Sat 11:48:00 AM 49.2819 -37.9294 259° West  Level FlightAware Approximate
Sat 11:49:00 AM 49.2575 -38.1211 259° West  Level FlightAware Approximate
Sat 11:50:00 AM 49.2327 -38.3127 259° West  Level FlightAware Approximate
Sat 11:51:00 AM 49.2077 -38.5041 259° West  Level FlightAware Approximate
Sat 11:52:00 AM 49.1823 -38.6952 259° West  Level FlightAware Approximate
Sat 11:53:00 AM 49.1566 -38.8862 258° West  Level FlightAware Approximate
Sat 11:54:00 AM 49.1306 -39.0770 258° West  Level FlightAware Approximate
Sat 11:55:00 AM 49.1042 -39.2683 258° West  Level FlightAware Approximate
Sat 11:56:00 AM 49.0775 -39.4594 258° West  Level FlightAware Approximate
Sat 11:57:00 AM 49.0504 -39.6503 258° West  Level FlightAware Approximate
Sat 11:58:00 AM 49.0231 -39.8410 258° West  Level FlightAware Approximate
Sat 11:59:00 AM 48.9980 -40.0321 265° West  Level FlightAware Approximate
Sat 12:00:00 PM 48.9859 -40.2262 265° West  Level FlightAware Approximate
Sat 12:01:00 PM 48.9735 -40.4203 265° West  Level FlightAware Approximate
Sat 12:02:00 PM 48.9608 -40.6142 264° West  Level FlightAware Approximate
Sat 12:03:00 PM 48.9477 -40.8081 264° West  Level FlightAware Approximate
Sat 12:04:00 PM 48.9343 -41.0019 264° West  Level FlightAware Approximate
Sat 12:05:00 PM 48.9206 -41.1955 264° West  Level FlightAware Approximate
Sat 12:06:00 PM 48.9065 -41.3890 264° West  Level FlightAware Approximate
Sat 12:07:00 PM 48.8922 -41.5825 264° West  Level FlightAware Approximate
Sat 12:08:00 PM 48.8774 -41.7758 263° West  Level FlightAware Approximate
Sat 12:09:00 PM 48.8624 -41.9690 263° West  Level FlightAware Approximate
Sat 12:10:00 PM 48.8471 -42.1621 263° West  Level FlightAware Approximate
Sat 12:11:00 PM 48.8314 -42.3551 263° West  Level FlightAware Approximate
Sat 12:12:00 PM 48.8156 -42.5480 263° West  Level FlightAware Approximate
Sat 12:13:00 PM 48.8008 -42.7410 263° West  Level FlightAware Approximate
Sat 12:14:00 PM 48.7857 -42.9339 263° West  Level FlightAware Approximate
Sat 12:15:00 PM 48.7703 -43.1266 263° West  Level FlightAware Approximate
Sat 12:16:00 PM 48.7546 -43.3193 263° West  Level FlightAware Approximate
Sat 12:17:00 PM 48.7385 -43.5118 263° West  Level FlightAware Approximate
Sat 12:18:00 PM 48.7221 -43.7043 263° West  Level FlightAware Approximate
Sat 12:19:00 PM 48.7055 -43.8965 263° West  Level FlightAware Approximate
Sat 12:20:00 PM 48.6884 -44.0887 262° West  Level FlightAware Approximate
Sat 12:21:00 PM 48.6711 -44.2807 262° West  Level FlightAware Approximate
Sat 12:22:00 PM 48.6535 -44.4726 262° West  Level FlightAware Approximate
Sat 12:23:00 PM 48.6355 -44.6644 262° West  Level FlightAware Approximate
Sat 12:24:00 PM 48.6172 -44.8560 262° West  Level FlightAware Approximate
Sat 12:25:00 PM 48.5986 -45.0475 261° West  Level FlightAware Approximate
Sat 12:26:00 PM 48.5791 -45.2387 261° West  Level FlightAware Approximate
Sat 12:27:00 PM 48.5592 -45.4298 261° West  Level FlightAware Approximate
Sat 12:28:00 PM 48.5391 -45.6207 261° West  Level FlightAware Approximate
Sat 12:29:00 PM 48.5187 -45.8114 261° West  Level FlightAware Approximate
Sat 12:30:00 PM 48.4979 -46.0020 261° West  Level FlightAware Approximate
Sat 12:31:00 PM 48.4768 -46.1925 261° West  Level FlightAware Approximate
Sat 12:32:00 PM 48.4558 -46.3828 261° West  Level FlightAware Approximate
Sat 12:33:00 PM 48.4347 -46.5731 261° West  Level FlightAware Approximate
Sat 12:34:00 PM 48.4133 -46.7632 260° West  Level FlightAware Approximate
Sat 12:35:00 PM 48.3916 -46.9532 260° West  Level FlightAware Approximate
Sat 12:36:00 PM 48.3695 -47.1430 260° West  Level FlightAware Approximate
Sat 12:37:00 PM 48.3472 -47.3326 260° West  Level FlightAware Approximate
Sat 12:38:00 PM 48.3246 -47.5221 260° West  Level FlightAware Approximate
Sat 12:39:00 PM 48.3016 -47.7114 260° West  Level FlightAware Approximate
Sat 12:40:00 PM 48.2783 -47.9005 260° West  Level FlightAware Approximate
Sat 12:41:00 PM 48.2547 -48.0895 259° West  Level FlightAware Approximate
Sat 12:42:00 PM 48.2309 -48.2783 259° West  Level FlightAware Approximate
Sat 12:43:00 PM 48.2067 -48.4669 259° West  Level FlightAware Approximate
Sat 12:44:00 PM 48.1822 -48.6553 259° West  Level FlightAware Approximate
Sat 12:45:00 PM 48.1573 -48.8435 259° West  Level FlightAware Approximate
Sat 12:45:54 PM 47.9880 -50.1770 259° West 450 518 36,000  Level FlightAware ADS-B
Sat 12:46:00 PM 48.1322 -49.0316 259° West  Level FlightAware Approximate
Sat 12:46:35 PM 47.9700 -50.3020 258° West 449 517 36,000  Level FlightAware ADS-B
Sat 12:47:09 PM 47.9610 -50.4050 263° West 449 517 36,000  Level FlightAware ADS-B
Sat 12:47:50 PM 47.9520 -50.5310 264° West 449 517 36,000  Level FlightAware ADS-B
Sat 12:48:34 PM 47.9420 -50.6660 264° West 449 517 36,000  Level FlightAware ADS-B
Sat 12:49:10 PM 47.9340 -50.7750 264° West 449 517 36,000  Level FlightAware ADS-B
Sat 12:49:54 PM 47.9240 -50.9130 264° West 448 516 36,000  Level FlightAware ADS-B
Sat 12:50:35 PM 47.9150 -51.0360 264° West 446 513 36,000 225 Level FlightAware ADS-B
Sat 12:51:14 PM 47.9060 -51.1550 264° West 442 509 36,300 429 Climbing FlightAware ADS-B
Sat 12:51:59 PM 47.8950 -51.2920 263° West 442 509 36,600 349 Climbing FlightAware ADS-B
Sat 12:52:40 PM 47.8860 -51.4140 264° West 441 507 36,800 379 Climbing FlightAware ADS-B
Sat 12:53:34 PM 47.8720 -51.5790 263° West 440 506 37,200 447 Climbing FlightAware ADS-B
Sat 12:54:14 PM 47.8630 -51.6980 264° West 439 505 37,500 424 Climbing FlightAware ADS-B
Sat 12:54:59 PM 47.8520 -51.8330 263° West 437 503 37,800 333 Climbing FlightAware ADS-B
Sat 12:55:44 PM 47.8410 -51.9660 263° West 436 502 38,000 140 Climbing FlightAware ADS-B
Sat 12:56:25 PM 47.8300 -52.0860 262° West 437 503 38,000  Level FlightAware ADS-B
Sat 12:57:14 PM 47.8180 -52.2330 263° West 435 501 38,000  Level FlightAware ADS-B
Sat 12:57:59 PM 47.8060 -52.3660 262° West 432 497 38,000  Level FlightAware ADS-B
Sat 12:58:55 PM 47.7920 -52.5300 263° West 426 490 38,000  Level FlightAware ADS-B
Sat 12:59:40 PM 47.7800 -52.6620 262° West 426 490 38,000  Level FlightAware ADS-B
Sat 01:00:16 PM 47.7700 -52.7660 262° West 425 489 38,000  Level FlightAware ADS-B
Sat 01:01:00 PM 47.7590 -52.8940 263° West 422 486 38,000  Level FlightAware ADS-B
Sat 01:01:45 PM 47.7470 -53.0210 262° West 420 483 38,000  Level FlightAware ADS-B
Sat 01:02:31 PM 47.7340 -53.1510 262° West 418 481 38,000  Level FlightAware ADS-B
Sat 01:03:10 PM 47.7240 -53.2640 263° West 417 480 38,000  Level FlightAware ADS-B
Sat 01:03:51 PM 47.7130 -53.3780 262° West 414 476 38,000  Level FlightAware ADS-B
Sat 01:04:36 PM 47.7010 -53.5030 262° West 411 473 38,000  Level FlightAware ADS-B
Sat 01:05:15 PM 47.6900 -53.6140 262° West 409 471 38,000  Level FlightAware ADS-B
Sat 01:05:56 PM 47.6780 -53.7260 261° West 407 468 38,000  Level FlightAware ADS-B
Sat 01:06:40 PM 47.6660 -53.8470 262° West 406 467 38,000  Level FlightAware ADS-B
Sat 01:07:21 PM 47.6550 -53.9610 262° West 405 466 38,000  Level FlightAware ADS-B
Sat 01:08:00 PM 47.6440 -54.0680 261° West 405 466 38,000  Level FlightAware ADS-B
Sat 01:08:36 PM 47.6340 -54.1650 261° West 405 466 38,000  Level FlightAware ADS-B
Sat 01:09:15 PM 47.6220 -54.2750 261° West 407 468 38,000  Level FlightAware ADS-B
Sat 01:10:01 PM 47.6090 -54.4010 261° West 410 472 38,000  Level FlightAware ADS-B
Sat 01:10:36 PM 47.5990 -54.4980 261° West 410 472 38,000  Level FlightAware ADS-B
Sat 01:11:34 PM 47.5840 -54.6300 260° West 413 475 38,000  Level FlightAware ADS-B
Sat 01:12:18 PM 47.5680 -54.7820 261° West 415 478 38,000  Level FlightAware ADS-B
Sat 01:13:08 PM 47.5520 -54.9240 261° West 416 479 38,000  Level FlightAware ADS-B
Sat 01:13:53 PM 47.5380 -55.0510 261° West 419 482 38,000  Level FlightAware ADS-B
Sat 01:14:33 PM 47.5250 -55.1630 260° West 420 483 38,000  Level FlightAware ADS-B
Sat 01:15:08 PM 47.5140 -55.2630 261° West 420 483 38,000  Level FlightAware ADS-B
Sat 01:15:53 PM 47.5010 -55.3800 261° West 420 483 38,000  Level FlightAware ADS-B
Sat 01:16:33 PM 47.4860 -55.5030 260° West 421 484 38,000  Level FlightAware ADS-B
Sat 01:17:13 PM 47.4730 -55.6150 260° West 421 484 38,000  Level FlightAware ADS-B
Sat 01:17:53 PM 47.4600 -55.7270 260° West 424 488 38,000  Level FlightAware ADS-B
Sat 01:18:28 PM 47.4480 -55.8260 260° West 425 489 38,000  Level FlightAware ADS-B
Sat 01:19:13 PM 47.4330 -55.9500 260° West 425 489 38,000  Level FlightAware ADS-B
Sat 01:20:14 PM 47.4130 -56.1130 260° West 424 488 38,000  Level FlightAware ADS-B
Sat 01:20:51 PM 47.4010 -56.2020 259° West 424 488 38,000  Level FlightAware ADS-B
Sat 01:21:38 PM 47.3860 -56.3160 259° West 424 488 38,000  Level FlightAware ADS-B
Sat 01:22:14 PM 47.3750 -56.4030 259° West 424 488 38,000  Level FlightAware ADS-B
Sat 01:22:49 PM 47.3640 -56.4870 259° West 424 488 38,000  Level FlightAware ADS-B
Sat 01:23:37 PM 47.3480 -56.6030 259° West 424 488 38,000  Level FlightAware ADS-B
Sat 01:24:39 PM 47.3290 -56.7530 259° West 424 488 38,000  Level FlightAware ADS-B
Sat 01:25:15 PM 47.3170 -56.8400 259° West 424 488 38,000  Level FlightAware ADS-B
Sat 01:26:18 PM 47.2780 -57.1790 260° West 444 511 38,000  Level FlightAware ADS-B
Sat 01:26:58 PM 47.2610 -57.3080 259° West 446 513 38,000  Level FlightAware ADS-B
Sat 01:27:38 PM 47.2460 -57.4250 259° West 447 514 38,000  Level FlightAware ADS-B
Sat 01:28:18 PM 47.2300 -57.5410 259° West 448 516 38,000  Level FlightAware ADS-B
Sat 01:28:58 PM 47.2140 -57.6550 258° West 449 517 38,000  Level FlightAware ADS-B
Sat 01:29:38 PM 47.1970 -57.7820 259° West 450 518 38,000  Level FlightAware ADS-B
Sat 01:30:08 PM 47.1840 -57.8770 259° West 451 519 38,000  Level FlightAware ADS-B
Sat 01:30:46 PM 47.1690 -57.9870 259° West 451 519 38,000  Level FlightAware ADS-B
Sat 01:31:28 PM 47.1510 -58.1160 258° West 452 520 38,000  Level FlightAware ADS-B
Sat 01:32:14 PM 47.1310 -58.2550 258° West 452 520 38,000  Level FlightAware ADS-B
Sat 01:32:54 PM 47.1140 -58.3750 258° West 452 520 38,000  Level FlightAware ADS-B
Sat 01:33:38 PM 47.0950 -58.5050 258° West 452 520 38,000  Level FlightAware ADS-B
Sat 01:34:22 PM 47.0760 -58.6390 258° West 455 524 38,000  Level FlightAware ADS-B
Sat 01:35:00 PM 47.0590 -58.7520 258° West 456 525 38,000  Level FlightAware ADS-B
Sat 01:35:42 PM 47.0400 -58.8810 258° West 458 527 38,000  Level FlightAware ADS-B
Sat 01:36:26 PM 47.0210 -59.0120 258° West 460 529 38,000  Level FlightAware ADS-B
Sat 01:37:04 PM 47.0030 -59.1300 257° West 461 531 38,000  Level FlightAware ADS-B
Sat 01:37:50 PM 46.9820 -59.2680 257° West 462 532 38,000  Level FlightAware ADS-B
Sat 01:38:26 PM 46.9650 -59.3780 257° West 463 533 38,000  Level FlightAware ADS-B
Sat 01:39:06 PM 46.9460 -59.5010 257° West 464 534 38,000  Level FlightAware ADS-B
Sat 01:39:50 PM 46.9260 -59.6360 258° West 464 534 38,000  Level FlightAware ADS-B
Sat 01:40:27 PM 46.9090 -59.7460 257° West 465 535 38,000  Level FlightAware ADS-B
Sat 01:41:12 PM 46.8870 -59.8840 257° West 465 535 38,000  Level FlightAware ADS-B
Sat 01:41:53 PM 46.8670 -60.0090 257° West 465 535 38,000  Level FlightAware ADS-B
Sat 01:42:38 PM 46.8450 -60.1480 257° West 464 534 38,000  Level FlightAware ADS-B
Sat 01:43:18 PM 46.8260 -60.2650 257° West 464 534 38,000  Level FlightAware ADS-B
Sat 01:43:58 PM 46.8060 -60.3900 257° West 463 533 38,000  Level FlightAware ADS-B
Sat 01:44:44 PM 46.7830 -60.5290 256° West 464 534 38,000  Level FlightAware ADS-B
Sat 01:45:24 PM 46.7630 -60.6520 257° West 464 534 38,000  Level FlightAware ADS-B
Sat 01:46:08 PM 46.7410 -60.7860 257° West 465 535 38,000  Level FlightAware ADS-B
Sat 01:46:49 PM 46.7200 -60.9090 256° West 467 537 38,000  Level FlightAware ADS-B
Sat 01:47:30 PM 46.6990 -61.0350 256° West 468 539 38,000  Level FlightAware ADS-B
Sat 01:48:14 PM 46.6760 -61.1700 256° West 469 540 38,000  Level FlightAware ADS-B
Sat 01:48:54 PM 46.6560 -61.2850 256° West 468 539 38,000  Level FlightAware ADS-B
Sat 01:49:34 PM 46.6340 -61.4140 256° West 469 540 38,000  Level FlightAware ADS-B
Sat 01:50:10 PM 46.6150 -61.5240 256° West 470 541 38,000  Level FlightAware ADS-B
Sat 01:50:56 PM 46.5910 -61.6660 256° West 470 541 38,000  Level FlightAware ADS-B
Sat 01:51:34 PM 46.5700 -61.7820 255° West 471 542 38,000  Level FlightAware ADS-B
Sat 01:52:10 PM 46.5510 -61.8900 256° West 471 542 38,000  Level FlightAware ADS-B
Sat 01:52:54 PM 46.5270 -62.0230 255° West 471 542 38,000  Level FlightAware ADS-B
Sat 01:53:34 PM 46.5050 -62.1490 256° West 472 543 38,000  Level FlightAware ADS-B
Sat 01:54:18 PM 46.4800 -62.2830 255° West 472 543 38,000  Level FlightAware ADS-B
Sat 01:54:58 PM 46.4590 -62.3990 255° West 475 547 38,000  Level FlightAware ADS-B
Sat 01:55:39 PM 46.4360 -62.5270 255° West 476 548 38,000  Level FlightAware ADS-B
Sat 01:56:22 PM 46.4110 -62.6640 255° West 479 551 38,000  Level FlightAware ADS-B
Sat 01:57:02 PM 46.3890 -62.7830 255° West 480 552 38,000  Level FlightAware ADS-B
Sat 01:57:53 PM 46.3620 -62.9170 254° West 480 552 38,000  Level FlightAware ADS-B
Sat 01:58:30 PM 46.3430 -63.0140 254° West 480 552 38,000  Level FlightAware ADS-B
Sat 01:59:18 PM 46.3180 -63.1400 254° West 480 552 38,000  Level FlightAware ADS-B
Sat 02:00:51 PM 46.2570 -63.4730 255° West 485 558 38,000  Level FlightAware ADS-B
Sat 02:01:27 PM 46.2380 -63.5690 254° West 485 558 38,000  Level FlightAware ADS-B
Sat 02:02:00 PM 46.2110 -63.7150 255° West 487 560 38,000  Level FlightAware ADS-B
Sat 02:02:52 PM 46.1830 -63.8540 254° West 487 560 38,000  Level FlightAware ADS-B
Sat 02:03:28 PM 46.1640 -63.9490 254° West 487 560 38,000  Level FlightAware ADS-B
Sat 02:04:28 PM 46.1210 -64.1620 254° West 488 562 38,000  Level FlightAware ADS-B
Sat 02:05:04 PM 46.1010 -64.2570 253° West 488 562 38,000  Level FlightAware ADS-B
Sat 02:06:09 PM 46.0580 -64.4790 254° West 489 563 38,000  Level FlightAware ADS-B
Sat 02:07:14 PM 46.0150 -64.6900 254° West 488 562 38,000  Level FlightAware ADS-B
Sat 02:07:56 PM 45.9910 -64.8030 253° West 488 562 38,000  Level FlightAware ADS-B
Sat 02:08:40 PM 45.9600 -64.9580 254° West 487 560 38,000  Level FlightAware ADS-B
Sat 02:09:22 PM 45.9330 -65.0850 253° West 487 560 38,000  Level FlightAware ADS-B
Sat 02:09:57 PM 45.9120 -65.1840 253° West 487 560 38,000  Level FlightAware ADS-B
Sat 02:10:39 PM 45.8830 -65.3250 254° West 487 560 38,000  Level FlightAware ADS-B
Sat 02:11:46 PM 45.8380 -65.5330 253° West 486 559 38,000  Level FlightAware ADS-B
Sat 02:12:26 PM 45.8120 -65.6570 253° West 485 558 38,000  Level FlightAware ADS-B
Sat 02:13:09 PM 45.7830 -65.7890 253° West 484 557 38,000  Level FlightAware ADS-B
Sat 02:13:50 PM 45.7560 -65.9120 253° West 483 556 38,000  Level FlightAware ADS-B
Sat 02:14:26 PM 45.7330 -66.0200 253° West 482 555 38,000  Level FlightAware ADS-B
Sat 02:15:10 PM 45.7030 -66.1540 252° West 482 555 38,000  Level FlightAware ADS-B
Sat 02:15:50 PM 45.6760 -66.2770 253° West 481 554 38,000  Level FlightAware ADS-B
Sat 02:16:26 PM 45.6530 -66.3810 252° West 480 552 38,000  Level FlightAware ADS-B
Sat 02:17:06 PM 45.6260 -66.5020 252° West 480 552 38,000  Level FlightAware ADS-B
Sat 02:17:51 PM 45.5950 -66.6380 252° West 481 554 38,000  Level FlightAware ADS-B
Sat 02:18:31 PM 45.5680 -66.7590 252° West 481 554 38,000  Level FlightAware ADS-B
Sat 02:19:12 PM 45.5400 -66.8820 252° West 480 552 38,000  Level FlightAware ADS-B
Sat 02:19:55 PM 45.5120 -67.0040 252° West 480 552 38,000  Level FlightAware ADS-B
Sat 02:20:37 PM 45.4810 -67.1370 252° West 480 552 38,000  Level FlightAware ADS-B
Sat 02:21:27 PM 45.4470 -67.2860 252° West 479 551 38,000  Level FlightAware ADS-B
Sat 02:22:07 PM 45.4190 -67.4060 252° West 480 552 38,000  Level FlightAware ADS-B
Sat 02:22:47 PM 45.3900 -67.5270 251° West 480 552 38,000  Level FlightAware ADS-B
Sat 02:23:22 PM 45.3650 -67.6330 251° West 481 554 38,000  Level FlightAware ADS-B
Sat 02:24:07 PM 45.3370 -67.7670 253° West 480 552 38,000  Level FlightAware ADS-B
Sat 02:24:47 PM 45.3200 -67.8910 259° West 480 552 38,000  Level FlightAware ADS-B
Sat 02:25:22 PM 45.3060 -68.0010 260° West 482 555 38,000  Level FlightAware ADS-B
Sat 02:26:07 PM 45.2890 -68.1400 260° West 481 554 38,000  Level FlightAware ADS-B
Sat 02:26:47 PM 45.2720 -68.2660 259° West 481 554 38,000  Level FlightAware ADS-B
Sat 02:27:27 PM 45.2560 -68.3890 260° West 483 556 38,000  Level FlightAware ADS-B
Sat 02:28:07 PM 45.2390 -68.5140 259° West 484 557 38,000  Level FlightAware ADS-B
Sat 02:28:52 PM 45.2200 -68.6560 259° West 485 558 38,000  Level FlightAware ADS-B
Sat 02:29:36 PM 45.2010 -68.7970 259° West 486 559 38,000  Level FlightAware ADS-B
Sat 02:30:19 PM 45.1820 -68.9310 259° West 487 560 38,000  Level FlightAware ADS-B
Sat 02:30:57 PM 45.1660 -69.0510 259° West 487 560 38,000  Level FlightAware ADS-B
Sat 02:31:42 PM 45.1470 -69.1860 259° West 486 559 38,000  Level FlightAware ADS-B
Sat 02:32:20 PM 45.1300 -69.3060 259° West 485 558 38,000  Level FlightAware ADS-B
Sat 02:33:05 PM 45.1110 -69.4430 259° West 485 558 38,000  Level FlightAware ADS-B
Sat 02:33:37 PM 45.0960 -69.5450 258° West 484 557 38,000  Level FlightAware ADS-B
Sat 02:34:17 PM 45.0780 -69.6670 258° West 484 557 38,000  Level FlightAware ADS-B
Sat 02:34:58 PM 45.0600 -69.7930 259° West 485 558 38,000  Level FlightAware ADS-B
Sat 02:35:41 PM 45.0400 -69.9290 258° West 484 557 38,000  Level FlightAware ADS-B
Sat 02:36:19 PM 45.0220 -70.0490 258° West 484 557 38,000  Level FlightAware ADS-B
Sat 02:37:01 PM 45.0030 -70.1740 258° West 483 556 38,000  Level FlightAware ADS-B
Sat 02:37:41 PM 44.9850 -70.2990 259° West 481 554 38,000  Level FlightAware ADS-B
Sat 02:38:21 PM 44.9660 -70.4230 258° West 480 552 38,000  Level FlightAware ADS-B
Sat 02:38:59 PM 44.9480 -70.5370 257° West 479 551 38,000  Level FlightAware ADS-B
Sat 02:39:45 PM 44.9270 -70.6750 258° West 479 551 38,000  Level FlightAware ADS-B
Sat 02:40:23 PM 44.9100 -70.7890 258° West 482 555 38,000  Level FlightAware ADS-B
Sat 02:40:55 PM 44.8940 -70.8920 258° West 481 554 38,000  Level FlightAware ADS-B
Sat 02:41:36 PM 44.8740 -71.0150 257° West 482 555 38,000  Level FlightAware ADS-B
Sat 02:42:16 PM 44.8550 -71.1350 257° West 483 556 38,000  Level FlightAware ADS-B
Sat 02:43:01 PM 44.8330 -71.2750 258° West 482 555 38,000  Level FlightAware ADS-B
Sat 02:43:46 PM 44.8100 -71.4140 257° West 481 554 38,000  Level FlightAware ADS-B
Sat 02:44:21 PM 44.7930 -71.5210 257° West 478 550 38,000  Level FlightAware ADS-B
Sat 02:45:06 PM 44.7710 -71.6570 257° West 465 535 38,000  Level FlightAware ADS-B
Sat 02:45:51 PM 44.7500 -71.7860 257° West 457 526 38,000  Level FlightAware ADS-B
Sat 02:46:26 PM 44.7330 -71.8890 257° West 455 524 38,000  Level FlightAware ADS-B
Sat 02:47:06 PM 44.7130 -72.0050 256° West 453 521 38,000  Level FlightAware ADS-B
Sat 02:47:47 PM 44.6940 -72.1190 257° West 451 519 38,000  Level FlightAware ADS-B
Sat 02:48:27 PM 44.6750 -72.2300 257° West 449 517 38,000  Level FlightAware ADS-B
Sat 02:49:06 PM 44.6550 -72.3480 257° West 449 517 38,000  Level FlightAware ADS-B
Sat 02:49:48 PM 44.6350 -72.4670 257° West 447 514 38,000  Level FlightAware ADS-B
Sat 02:50:20 PM 44.6190 -72.5580 256° West 446 513 38,000  Level FlightAware ADS-B
Sat 02:51:06 PM 44.5970 -72.6850 256° West 446 513 38,000  Level FlightAware ADS-B
Sat 02:51:57 PM 44.5720 -72.8280 256° West 446 513 38,000  Level FlightAware ADS-B
Sat 02:52:31 PM 44.5560 -72.9220 257° West 445 512 38,000  Level FlightAware ADS-B
Sat 02:53:17 PM 44.5330 -73.0480 256° West 443 510 38,000  Level FlightAware ADS-B
Sat 02:54:12 PM 44.5060 -73.2020 256° West 442 509 38,000  Level FlightAware ADS-B
Sat 02:54:52 PM 44.4860 -73.3130 256° West 442 509 38,000  Level FlightAware ADS-B
Sat 02:55:37 PM 44.4630 -73.4380 256° West 441 507 38,000  Level FlightAware ADS-B
Sat 02:56:17 PM 44.4450 -73.5400 256° West 440 506 38,000  Level FlightAware ADS-B
Sat 02:57:03 PM 44.4190 -73.6780 255° West 439 505 38,000  Level FlightAware ADS-B
Sat 02:57:39 PM 44.4020 -73.7750 256° West 439 505 38,000  Level FlightAware ADS-B
Sat 02:58:19 PM 44.3810 -73.8840 255° West 440 506 38,000  Level FlightAware ADS-B
Sat 02:58:57 PM 44.3620 -73.9870 256° West 440 506 38,000  Level FlightAware ADS-B
Sat 02:59:35 PM 44.3420 -74.0930 255° West 440 506 38,000  Level FlightAware ADS-B
Sat 03:00:19 PM 44.3190 -74.2150 255° West 441 507 38,000  Level FlightAware ADS-B
Sat 03:00:59 PM 44.2990 -74.3220 255° West 441 507 38,000  Level FlightAware ADS-B
Sat 03:01:43 PM 44.2750 -74.4450 255° West 441 507 38,000  Level FlightAware ADS-B
Sat 03:02:23 PM 44.2550 -74.5530 256° West 442 509 38,000  Level FlightAware ADS-B
Sat 03:03:04 PM 44.2340 -74.6610 255° West 443 510 38,000  Level FlightAware ADS-B
Sat 03:03:48 PM 44.2030 -74.7800 250° West 448 516 38,000  Level FlightAware ADS-B
Sat 03:04:07 PM 44.1760 -74.8270 231° Southwest 449 517 38,000  Level FlightAware ADS-B
Sat 03:04:53 PM 44.1070 -74.8980 216° Southwest 462 532 38,000  Level FlightAware ADS-B
Sat 03:05:34 PM 44.0250 -74.9730 213° Southwest 463 533 38,000  Level FlightAware ADS-B
Sat 03:06:18 PM 43.9460 -75.0450 213° Southwest 463 533 38,000  Level FlightAware ADS-B
Sat 03:06:59 PM 43.8730 -75.1130 214° Southwest 463 533 38,000  Level FlightAware ADS-B
Sat 03:07:42 PM 43.7980 -75.1830 214° Southwest 462 532 38,000  Level FlightAware ADS-B
Sat 03:08:24 PM 43.7220 -75.2550 214° Southwest 462 532 38,000  Level FlightAware ADS-B
Sat 03:09:02 PM 43.6560 -75.3170 214° Southwest 462 532 38,000  Level FlightAware ADS-B
Sat 03:09:36 PM 43.5950 -75.3750 215° Southwest 462 532 38,000  Level FlightAware ADS-B
Sat 03:10:22 PM 43.5330 -75.4730 229° Southwest 451 519 38,000  Level FlightAware ADS-B
Sat 03:11:32 PM 43.5110 -75.6710 261° West 450 518 38,000  Level FlightAware ADS-B
Sat 03:12:18 PM 43.5030 -75.8020 265° West 450 518 38,000  Level FlightAware ADS-B
Sat 03:12:58 PM 43.4960 -75.9160 265° West 450 518 38,000  Level FlightAware ADS-B
Sat 03:13:42 PM 43.4880 -76.0420 265° West 451 519 38,000  Level FlightAware ADS-B
Sat 03:14:22 PM 43.4810 -76.1540 265° West 452 520 38,000  Level FlightAware ADS-B
Sat 03:15:04 PM 43.4720 -76.2760 264° West 452 520 38,000  Level FlightAware ADS-B
Sat 03:15:48 PM 43.4640 -76.4030 265° West 452 520 38,000  Level FlightAware ADS-B
Sat 03:16:29 PM 43.4560 -76.5160 264° West 453 521 38,000  Level FlightAware ADS-B
Sat 03:17:10 PM 43.4480 -76.6340 265° West 454 522 38,000  Level FlightAware ADS-B
Sat 03:17:54 PM 43.4390 -76.7600 264° West 454 522 38,000  Level FlightAware ADS-B
Sat 03:18:34 PM 43.4300 -76.8770 264° West 454 522 38,000  Level FlightAware ADS-B
Sat 03:19:18 PM 43.4210 -77.0020 264° West 453 521 38,000  Level FlightAware ADS-B
Sat 03:19:58 PM 43.4130 -77.1150 264° West 454 522 38,000  Level FlightAware ADS-B
Sat 03:20:40 PM 43.4040 -77.2390 264° West 455 524 38,000  Level FlightAware ADS-B
Sat 03:21:24 PM 43.3940 -77.3630 264° West 456 525 38,000  Level FlightAware ADS-B
Sat 03:22:00 PM 43.3860 -77.4660 264° West 458 527 38,000  Level FlightAware ADS-B
Sat 03:22:40 PM 43.3770 -77.5810 264° West 455 524 38,000  Level FlightAware ADS-B
Sat 03:23:21 PM 43.3680 -77.6980 264° West 451 519 38,000  Level FlightAware ADS-B
Sat 03:24:00 PM 43.3590 -77.8090 264° West 451 519 38,000  Level FlightAware ADS-B
Sat 03:24:40 PM 43.3500 -77.9200 264° West 451 519 38,000  Level FlightAware ADS-B
Sat 03:25:20 PM 43.3400 -78.0340 263° West 452 520 38,000  Level FlightAware ADS-B
Sat 03:26:00 PM 43.3310 -78.1490 264° West 452 520 38,000  Level FlightAware ADS-B
Sat 03:26:44 PM 43.3200 -78.2770 263° West 451 519 38,000  Level FlightAware ADS-B
Sat 03:27:28 PM 43.3090 -78.4030 263° West 452 520 38,000  Level FlightAware ADS-B
Sat 03:28:09 PM 43.3000 -78.5100 263° West 452 520 38,000  Level FlightAware ADS-B
Sat 03:28:50 PM 43.2890 -78.6320 263° West 453 521 38,000  Level FlightAware ADS-B
Sat 03:29:36 PM 43.2770 -78.7660 263° West 454 522 38,000  Level FlightAware ADS-B
Sat 03:30:18 PM 43.2660 -78.8840 263° West 454 522 38,000  Level FlightAware ADS-B
Sat 03:30:58 PM 43.2560 -79.0020 263° West 456 525 38,000  Level FlightAware ADS-B
Sat 03:31:42 PM 43.2440 -79.1270 263° West 457 526 38,000  Level FlightAware ADS-B
Sat 03:32:22 PM 43.2340 -79.2420 263° West 458 527 38,000  Level FlightAware ADS-B
Sat 03:33:02 PM 43.2230 -79.3500 262° West 461 531 38,000  Level FlightAware ADS-B
Sat 03:33:44 PM 43.2110 -79.4790 263° West 469 540 38,000  Level FlightAware ADS-B
Sat 03:34:26 PM 43.1990 -79.5990 262° West 471 542 38,000  Level FlightAware ADS-B
Sat 03:35:08 PM 43.1870 -79.7240 263° West 473 544 38,000  Level FlightAware ADS-B
Sat 03:35:51 PM 43.1740 -79.8530 262° West 474 545 38,000  Level FlightAware ADS-B
Sat 03:36:34 PM 43.1610 -79.9820 262° West 474 545 38,000  Level FlightAware ADS-B
Sat 03:37:14 PM 43.1490 -80.1020 262° West 474 545 38,000  Level FlightAware ADS-B
Sat 03:37:58 PM 43.1360 -80.2320 262° West 476 548 38,000  Level FlightAware ADS-B
Sat 03:38:38 PM 43.1240 -80.3530 262° West 478 550 38,000  Level FlightAware ADS-B
Sat 03:39:20 PM 43.1120 -80.4780 263° West 477 549 38,000 -258 Level FlightAware ADS-B
Sat 03:40:11 PM 43.1130 -80.5900 271° West 472 543 37,600 -717 Descending FlightAware ADS-B
Sat 03:40:52 PM 43.1150 -80.7260 271° West 470 541 36,900 -988 Descending FlightAware ADS-B
Sat 03:41:36 PM 43.1180 -80.8600 272° West 468 539 36,200 -675 Descending FlightAware ADS-B
Sat 03:42:12 PM 43.1210 -80.9620 272° West 469 540 36,000 -164 Descending FlightAware ADS-B
Sat 03:42:49 PM 43.1190 -81.0750 269° West 470 541 36,000 -538 Level FlightAware ADS-B
Sat 03:43:30 PM 43.1140 -81.1990 267° West 470 541 35,300 -977 Descending FlightAware ADS-B
Sat 03:44:15 PM 43.1060 -81.3520 266° West 470 541 34,600 -929 Descending FlightAware ADS-B
Sat 03:44:54 PM 43.1010 -81.4650 267° West 473 544 34,000 -429 Descending FlightAware ADS-B
Sat 03:45:39 PM 43.0940 -81.6000 266° West 474 545 34,000 -607 Level FlightAware ADS-B
Sat 03:46:23 PM 43.0880 -81.7270 266° West 485 558 33,100 -1,121 Descending FlightAware ADS-B
Sat 03:47:10 PM 43.0800 -81.8740 266° West 487 560 32,300 -653 Descending FlightAware ADS-B
Sat 03:48:04 PM 43.0720 -82.0190 266° West 490 564 32,000 -191 Descending FlightAware ADS-B
Sat 03:48:44 PM 43.0660 -82.1470 266° West 491 565 32,000  Level FlightAware ADS-B
Sat 03:49:28 PM 43.0590 -82.2780 266° West 490 564 32,000  Level FlightAware ADS-B
Sat 03:50:14 PM 43.0510 -82.4180 266° West 480 552 32,000  Level FlightAware ADS-B
Sat 03:50:50 PM 43.0430 -82.5460 265° West 480 552 32,000  Level FlightAware ADS-B
Sat 03:51:39 PM 43.0340 -82.6970 265° West 483 556 32,000 -75 Level FlightAware ADS-B
Sat 03:52:10 PM 43.0280 -82.7950 265° West 488 562 31,900 -740 Descending FlightAware ADS-B
Sat 03:52:52 PM 43.0240 -82.9240 268° West 490 564 31,100 -1,034 Descending FlightAware ADS-B
Sat 03:53:37 PM 43.0520 -83.0520 287° West 489 563 30,400 -868 Descending FlightAware ADS-B
Sat 03:54:08 PM 43.0960 -83.1280 308° West 483 556 30,000 -640 Descending FlightAware ADS-B
Sat 03:54:52 PM 43.1630 -83.2230 314° West 470 541 29,600 -1,186 Descending FlightAware ADS-B
Sat 03:55:34 PM 43.2270 -83.3160 313° West 470 541 28,300 -1,231 Descending FlightAware ADS-B
Sat 03:56:10 PM 43.2760 -83.3980 309° West 471 542 28,000 -346 Descending FlightAware ADS-B
Sat 03:56:26 PM 43.2860 -83.4430 287° West 474 545 28,000  Level FlightAware ADS-B
Sat 03:56:52 PM 43.2800 -83.5240 264° West 471 542 28,000  Level FlightAware ADS-B
Sat 03:57:18 PM 43.2630 -83.5930 251° West 472 543 28,000  Level FlightAware ADS-B
Sat 03:58:02 PM 43.2310 -83.7190 251° West 474 545 28,000  Level FlightAware ADS-B
Sat 03:58:40 PM 43.2040 -83.8300 252° West 476 548 28,000 -286 Level FlightAware ADS-B
Sat 03:59:26 PM 43.1730 -83.9590 252° West 473 544 27,600 -682 Descending FlightAware ADS-B
Sat 04:00:08 PM 43.1450 -84.0770 252° West 469 540 27,000 -825 Descending FlightAware ADS-B
Sat 04:00:46 PM 43.1190 -84.1850 252° West 466 536 26,500 -789 Descending FlightAware ADS-B
Sat 04:01:24 PM 43.0930 -84.2920 252° West 465 535 26,000 -385 Descending FlightAware ADS-B
Sat 04:02:04 PM 43.0660 -84.3980 251° West 468 539 26,000  Level FlightAware ADS-B
Sat 04:02:48 PM 43.0350 -84.5240 251° West 469 540 26,000  Level FlightAware ADS-B
Sat 04:03:32 PM 43.0040 -84.6480 251° West 464 534 26,000  Level FlightAware ADS-B
Sat 04:04:13 PM 42.9760 -84.7580 251° West 433 498 26,000  Level FlightAware ADS-B
Sat 04:04:53 PM 42.9500 -84.8610 251° West 437 503 26,000  Level FlightAware ADS-B
Sat 04:05:37 PM 42.9210 -84.9750 251° West 429 494 26,000  Level FlightAware ADS-B
Sat 04:06:10 PM 42.9000 -85.0570 251° West 430 495 26,000  Level FlightAware ADS-B
Sat 04:06:54 PM 42.8710 -85.1710 251° West 417 480 26,000  Level FlightAware ADS-B
Sat 04:07:37 PM 42.8450 -85.2740 251° West 399 459 26,000  Level FlightAware ADS-B
Sat 04:08:10 PM 42.8240 -85.3540 250° West 401 461 26,000  Level FlightAware ADS-B
Sat 04:08:53 PM 42.7980 -85.4540 251° West 402 463 26,000 -558 Level FlightAware ADS-B
Sat 04:09:36 PM 42.7760 -85.5580 254° West 392 451 25,200 -1,317 Descending FlightAware ADS-B
Sat 04:10:15 PM 42.7600 -85.6480 256° West 388 447 24,200 -1,500 Descending FlightAware ADS-B
Sat 04:10:56 PM 42.7420 -85.7480 256° West 383 441 23,200 -1,429 Descending FlightAware ADS-B
Sat 04:11:39 PM 42.7240 -85.8450 256° West 380 437 22,200 -1,465 Descending FlightAware ADS-B
Sat 04:12:22 PM 42.7060 -85.9450 256° West 373 429 21,100 -1,575 Descending FlightAware ADS-B
Sat 04:12:59 PM 42.6900 -86.0300 256° West 404 465 20,100 -892 Descending FlightAware ADS-B
Sat 04:13:36 PM 42.6730 -86.1250 256° West 419 482 20,000 -74 Descending FlightAware ADS-B
Sat 04:14:20 PM 42.6520 -86.2400 256° West 423 487 20,000 -706 Level FlightAware ADS-B
Sat 04:15:35 PM 42.6240 -86.3890 256° West 19,500 -991 Descending FlightAware ADS-B
Sat 04:16:09 PM 42.6000 -86.5180 256° West 425 489 18,200 -2,025 Descending FlightAware ADS-B
Sat 04:16:55 PM 42.5770 -86.6380 255° West 416 479 16,800 -1,704 Descending FlightAware ADS-B
Sat 04:17:30 PM 42.5600 -86.7220 255° West 407 468 15,900 -1,541 Descending FlightAware ADS-B
Sat 04:18:09 PM 42.5350 -86.8200 251° West 400 460 14,900 -1,481 Descending FlightAware ADS-B
Sat 04:18:47 PM 42.5140 -86.8980 250° West 393 452 14,000 -1,432 Descending FlightAware ADS-B
Sat 04:19:37 PM 42.4800 -87.0200 249° West 384 442 12,800 -1,500 Descending FlightAware ADS-B
Sat 04:20:07 PM 42.4620 -87.0890 251° West 380 437 12,000 -1,308 Descending FlightAware ADS-B
Sat 04:20:55 PM 42.4340 -87.1890 249° West 363 418 11,100 -1,091 Descending FlightAware ADS-B
Sat 04:21:35 PM 42.4100 -87.2760 250° West 338 389 10,400 -1,125 Descending FlightAware ADS-B
Sat 04:21:59 PM 42.3980 -87.3220 251° West 345 397 9,900 -1,105 Descending FlightAware ADS-B
Sat 04:22:13 PM 42.3900 -87.3490 248° West 343 395 9,700 -571 Descending FlightAware ADS-B
Sat 04:22:41 PM 42.3750 -87.4030 249° West 323 372 9,500 -621 Descending FlightAware ADS-B
Sat 04:23:11 PM 42.3600 -87.4590 250° West 305 351 9,100 -955 Descending FlightAware ADS-B
Sat 04:23:25 PM 42.3530 -87.4840 249° West 306 352 8,800 -1,364 Descending FlightAware ADS-B
Sat 04:23:55 PM 42.3340 -87.5360 244° Southwest 300 345 8,100 -1,138 Descending FlightAware ADS-B
Sat 04:24:23 PM 42.3070 -87.5690 222° Southwest 284 327 7,700 -750 Descending FlightAware ADS-B
Sat 04:24:51 PM 42.2780 -87.5980 217° Southwest 268 308 7,400 -643 Descending FlightAware ADS-B
Sat 04:25:19 PM 42.2520 -87.6270 220° Southwest 251 289 7,100 -643 Descending FlightAware ADS-B
Sat 04:25:47 PM 42.2280 -87.6530 219° Southwest 238 274 6,800 -321 Descending FlightAware ADS-B
Sat 04:26:15 PM 42.2060 -87.6780 220° Southwest 210 242 6,800  Level FlightAware ADS-B
Sat 04:26:43 PM 42.1850 -87.7020 220° Southwest 204 235 6,800  Level FlightAware ADS-B
Sat 04:27:11 PM 42.1650 -87.7240 219° Southwest 204 235 6,800  Level FlightAware ADS-B
Sat 04:27:39 PM 42.1440 -87.7470 219° Southwest 204 235 6,800  Level FlightAware ADS-B
Sat 04:28:07 PM 42.1240 -87.7700 220° Southwest 204 235 6,800  Level FlightAware ADS-B
Sat 04:28:35 PM 42.1040 -87.7930 220° Southwest 207 238 6,800  Level FlightAware ADS-B
Sat 04:28:47 PM 42.1000 -87.8100 252° West 213 245 6,800  Level FlightAware ADS-B
Sat 04:29:11 PM 42.1100 -87.8390 295° West 218 251 6,800  Level FlightAware ADS-B
Sat 04:29:19 PM 42.1150 -87.8460 314° West 219 252 6,800 -600 Level FlightAware ADS-B
Sat 04:29:51 PM 42.1390 -87.8760 317° Northwest 216 249 6,400 -871 Descending FlightAware ADS-B
Sat 04:30:21 PM 42.1610 -87.9030 318° Northwest 217 250 5,900 -1,138 Descending FlightAware ADS-B
Sat 04:30:49 PM 42.1810 -87.9280 317° Northwest 215 247 5,300 -1,071 Descending FlightAware ADS-B
Sat 04:31:17 PM 42.2020 -87.9540 317° Northwest 211 243 4,900 -964 Descending FlightAware ADS-B
Sat 04:31:45 PM 42.2210 -87.9780 317° Northwest 210 242 4,400 -1,071 Descending FlightAware ADS-B
Sat 04:32:13 PM 42.2400 -88.0030 316° Northwest 207 238 3,900 -900 Descending FlightAware ADS-B
Sat 04:32:25 PM 42.2480 -88.0170 308° West 206 237 3,800 -214 Descending FlightAware ADS-B
Sat 04:32:41 PM 42.2480 -88.0370 270° West 200 230 3,800  Level FlightAware ADS-B
Sat 04:32:51 PM 42.2440 -88.0480 244° Southwest 197 227 3,800  Level FlightAware ADS-B
Sat 04:33:09 PM 42.2340 -88.0650 232° Southwest 195 224 3,800  Level FlightAware ADS-B
Sat 04:33:35 PM 42.2160 -88.0840 218° Southwest 191 220 3,800  Level FlightAware ADS-B
Sat 04:33:59 PM 42.1970 -88.0810 173° South 186 214 3,800  Level FlightAware ADS-B
Sat 04:34:19 PM 42.1800 -88.0710 156° South 187 215 3,800  Level FlightAware ADS-B
Sat 04:34:39 PM 42.1660 -88.0640 160° South 186 214 3,800  Level FlightAware ADS-B
Sat 04:34:59 PM 42.1510 -88.0560 158° South 187 215 3,800 -794 Level FlightAware ADS-B
Sat 04:35:47 PM 42.1100 -88.0350 159° South 184 212 2,900 -1,083 Descending FlightAware ADS-B
Sat 04:36:11 PM 42.0940 -88.0190 143° Southeast 182 209 2,500 -720 Descending FlightAware ADS-B
Sat 04:36:37 PM 42.0780 -88.0000 139° Southeast 164 189 2,300 -333 Descending FlightAware ADS-B
Sat 04:36:47 PM 42.0720 -87.9930 139° Southeast 159 183 2,300 -682 Level FlightAware ADS-B
Sat 04:37:21 PM 42.0530 -87.9720 141° Southeast 160 184 1,800 -800 Descending FlightAware ADS-B
Sat 04:37:47 PM 42.0380 -87.9550 140° Southeast 153 176 1,500 -679 Descending FlightAware ADS-B
Sat 04:38:14 PM 42.0250 -87.9410 141° Southeast 149 171 1,200 -792 Descending FlightAware ADS-B
Sat 04:38:40 PM 42.0110 -87.9250 140° Southeast 143 165 800 -814 Descending FlightAware ADS-B
Sat 04:39:13 PM 41.9940 -87.9060 140° Southeast 141 162 400 -727 Descending FlightAware ADS-B
Sat 04:39:46 PM 41.9820 -87.8920 139° Southeast 120 138 -727 Descending FlightAware ADS-B
Sat 04:46:00 PM 41.9667 -87.9000 206° Southwest  Level FlightAware Approximate

Login

Don't have an account? Register now (free) for customized features, flight alerts, and more!